KBKV Airport Information

Runway Information
Runway 03 Length 5015 ft width 150 ft
Elevation 68 ft Threshold 0 ft Heading 26
Runway 21 Length 5015 ft Width 150 ft
Elevation 69 ft Threshold 0 ft Heading 206
Runway 09 Length 7001 ft width 150 ft
Elevation 71 ft Threshold 0 ft Heading 90
Runway 27 Length 7001 ft Width 150 ft
Elevation 70 ft Threshold 0 ft Heading 270
Airport Frequencies
Type A/D Name TAMPA APP/ Frequency 125.3 MHZ
Type ASOS Name ASOS Frequency 134.725 MHZ
Type CLD Name TAMPA CLNC Frequency 119.125 MHZ
Type OPS Name ARNG OPS Frequency 40.9 MHZ
Type RDO Name ST PETERSB Frequency 122.3 MHZ
Type UNIC Name CTAF/UNICO Frequency 123 MHZ
Airport Navaids
Airport Weather Information & NOTAM
ADDS - METARS form results

(2008 UTC 22 January 2021)
Data provider http://aviationweather.gov/metar/data/
 
METAR text: KBKV 222006Z 25011KT 10SM BKN028 BKN036 OVC100 25/16 A2999 RMK AO2 T02500161
Conditions at: KBKV (BROOKSVILLE , FL, US) observed 2006 UTC 22 January 2021
Temperature: 25.0°C (77°F)
Dewpoint: 16.1°C (61°F) [RH = 58%]
Pressure (altimeter): 29.99 inches Hg (1015.7 mb)
Winds: from the WSW (250 degrees) at 13 MPH (11 knots; 5.7 m/s)
Visibility: 10 or more miles (16+ km)
Ceiling: 2800 feet AGL
Clouds: broken clouds at 2800 feet AGL
broken clouds at 3600 feet AGL
overcast cloud deck at 10000 feet AGL
Weather: no significant weather observed at this time

METAR text: KBKV 221953Z 24009KT 10SM SCT028 BKN036 BKN100 24/16 A2998 RMK AO2 SLP152 T02440161
Conditions at: KBKV (BROOKSVILLE , FL, US) observed 1953 UTC 22 January 2021
Temperature: 24.4°C (76°F)
Dewpoint: 16.1°C (61°F) [RH = 60%]
Pressure (altimeter): 29.98 inches Hg (1015.3 mb)
[Sea-level pressure: 1015.2 mb]
Winds: from the WSW (240 degrees) at 10 MPH (9 knots; 4.6 m/s)
Visibility: 10 or more miles (16+ km)
Ceiling: 3600 feet AGL
Clouds: scattered clouds at 2800 feet AGL
broken clouds at 3600 feet AGL
broken clouds at 10000 feet AGL
Weather: no significant weather observed at this time